sensor_id;sensor_type;location;lat;lon;timestamp;P1;P2;P0
49914;PMS5003;35806;47.958;13.158;2023-07-13T00:02:14;5;5;
49914;PMS5003;35806;47.958;13.158;2023-07-13T00:04:42;5;5;
49914;PMS5003;35806;47.958;13.158;2023-07-13T00:07:09;5;4;
49914;PMS5003;35806;47.958;13.158;2023-07-13T00:09:37;9;6;
49914;PMS5003;35806;47.958;13.158;2023-07-13T00:12:04;5;5;
49914;PMS5003;35806;47.958;13.158;2023-07-13T00:14:47;4;3;
49914;PMS5003;35806;47.958;13.158;2023-07-13T00:17:16;4;4;
49914;PMS5003;35806;47.958;13.158;2023-07-13T00:19:43;4;4;
49914;PMS5003;35806;47.958;13.158;2023-07-13T00:22:10;6;6;
49914;PMS5003;35806;47.958;13.158;2023-07-13T00:24:38;4;4;
49914;PMS5003;35806;47.958;13.158;2023-07-13T00:27:05;4;3;
49914;PMS5003;35806;47.958;13.158;2023-07-13T00:29:33;4;4;
49914;PMS5003;35806;47.958;13.158;2023-07-13T00:32:01;4;4;
49914;PMS5003;35806;47.958;13.158;2023-07-13T00:34:29;5;5;
49914;PMS5003;35806;47.958;13.158;2023-07-13T00:36:57;5;5;
49914;PMS5003;35806;47.958;13.158;2023-07-13T00:39:25;5;5;
49914;PMS5003;35806;47.958;13.158;2023-07-13T00:41:52;4;4;
49914;PMS5003;35806;47.958;13.158;2023-07-13T00:44:20;4;4;
49914;PMS5003;35806;47.958;13.158;2023-07-13T00:46:52;4;4;
49914;PMS5003;35806;47.958;13.158;2023-07-13T00:49:20;5;5;
49914;PMS5003;35806;47.958;13.158;2023-07-13T00:52:02;5;5;
49914;PMS5003;35806;47.958;13.158;2023-07-13T00:54:55;6;5;
49914;PMS5003;35806;47.958;13.158;2023-07-13T00:57:24;4;3;
49914;PMS5003;35806;47.958;13.158;2023-07-13T00:59:54;5;5;
49914;PMS5003;35806;47.958;13.158;2023-07-13T01:16:24;4;4;
49914;PMS5003;35806;47.958;13.158;2023-07-13T01:18:54;3;3;
49914;PMS5003;35806;47.958;13.158;2023-07-13T01:21:22;4;4;
49914;PMS5003;35806;47.958;13.158;2023-07-13T01:23:50;5;3;
49914;PMS5003;35806;47.958;13.158;2023-07-13T01:26:18;3;3;
49914;PMS5003;35806;47.958;13.158;2023-07-13T01:28:45;4;4;
49914;PMS5003;35806;47.958;13.158;2023-07-13T01:31:13;4;4;
49914;PMS5003;35806;47.958;13.158;2023-07-13T01:33:40;4;4;
49914;PMS5003;35806;47.958;13.158;2023-07-13T01:36:08;3;3;
49914;PMS5003;35806;47.958;13.158;2023-07-13T01:38:37;3;3;
49914;PMS5003;35806;47.958;13.158;2023-07-13T01:41:04;5;5;
49914;PMS5003;35806;47.958;13.158;2023-07-13T01:43:32;2;2;
49914;PMS5003;35806;47.958;13.158;2023-07-13T01:45:59;3;3;
49914;PMS5003;35806;47.958;13.158;2023-07-13T01:48:27;1;1;
49914;PMS5003;35806;47.958;13.158;2023-07-13T01:50:54;4;4;
49914;PMS5003;35806;47.958;13.158;2023-07-13T01:53:22;3;3;
49914;PMS5003;35806;47.958;13.158;2023-07-13T01:55:54;4;4;
49914;PMS5003;35806;47.958;13.158;2023-07-13T01:58:21;4;4;
49914;PMS5003;35806;47.958;13.158;2023-07-13T02:00:48;2;2;
49914;PMS5003;35806;47.958;13.158;2023-07-13T02:03:20;3;3;
49914;PMS5003;35806;47.958;13.158;2023-07-13T02:05:48;4;3;
49914;PMS5003;35806;47.958;13.158;2023-07-13T02:08:15;3;3;
49914;PMS5003;35806;47.958;13.158;2023-07-13T02:10:43;3;3;
49914;PMS5003;35806;47.958;13.158;2023-07-13T02:13:11;3;3;
49914;PMS5003;35806;47.958;13.158;2023-07-13T02:15:38;4;4;
49914;PMS5003;35806;47.958;13.158;2023-07-13T02:18:06;4;4;
49914;PMS5003;35806;47.958;13.158;2023-07-13T02:20:33;3;3;
49914;PMS5003;35806;47.958;13.158;2023-07-13T02:23:00;4;4;
49914;PMS5003;35806;47.958;13.158;2023-07-13T02:25:28;2;2;
49914;PMS5003;35806;47.958;13.158;2023-07-13T02:27:55;4;4;
49914;PMS5003;35806;47.958;13.158;2023-07-13T02:30:23;4;3;
49914;PMS5003;35806;47.958;13.158;2023-07-13T02:32:51;3;3;
49914;PMS5003;35806;47.958;13.158;2023-07-13T02:35:19;6;6;
49914;PMS5003;35806;47.958;13.158;2023-07-13T02:37:45;3;3;
49914;PMS5003;35806;47.958;13.158;2023-07-13T02:40:13;4;4;
49914;PMS5003;35806;47.958;13.158;2023-07-13T02:42:40;3;3;
49914;PMS5003;35806;47.958;13.158;2023-07-13T02:45:08;4;4;
49914;PMS5003;35806;47.958;13.158;2023-07-13T02:47:36;5;5;
49914;PMS5003;35806;47.958;13.158;2023-07-13T02:50:04;3;3;
49914;PMS5003;35806;47.958;13.158;2023-07-13T02:52:32;3;3;
49914;PMS5003;35806;47.958;13.158;2023-07-13T02:54:59;4;4;
49914;PMS5003;35806;47.958;13.158;2023-07-13T02:57:27;2;2;
49914;PMS5003;35806;47.958;13.158;2023-07-13T02:59:54;3;3;
49914;PMS5003;35806;47.958;13.158;2023-07-13T03:02:20;5;4;
49914;PMS5003;35806;47.958;13.158;2023-07-13T03:04:48;4;4;
49914;PMS5003;35806;47.958;13.158;2023-07-13T03:07:15;1;1;
49914;PMS5003;35806;47.958;13.158;2023-07-13T03:09:43;3;3;
49914;PMS5003;35806;47.958;13.158;2023-07-13T03:12:10;2;2;
49914;PMS5003;35806;47.958;13.158;2023-07-13T03:14:38;3;3;
49914;PMS5003;35806;47.958;13.158;2023-07-13T03:17:05;1;1;
49914;PMS5003;35806;47.958;13.158;2023-07-13T03:19:33;2;2;
49914;PMS5003;35806;47.958;13.158;2023-07-13T03:22:00;2;2;
49914;PMS5003;35806;47.958;13.158;2023-07-13T03:24:28;3;3;
49914;PMS5003;35806;47.958;13.158;2023-07-13T03:26:55;2;2;
49914;PMS5003;35806;47.958;13.158;2023-07-13T03:29:23;2;2;
49914;PMS5003;35806;47.958;13.158;2023-07-13T03:31:51;4;4;
49914;PMS5003;35806;47.958;13.158;2023-07-13T03:34:18;1;1;
49914;PMS5003;35806;47.958;13.158;2023-07-13T03:36:45;3;2;
49914;PMS5003;35806;47.958;13.158;2023-07-13T03:39:13;3;3;
49914;PMS5003;35806;47.958;13.158;2023-07-13T03:41:40;3;2;
49914;PMS5003;35806;47.958;13.158;2023-07-13T03:44:08;3;3;
49914;PMS5003;35806;47.958;13.158;2023-07-13T03:46:35;5;3;
49914;PMS5003;35806;47.958;13.158;2023-07-13T03:49:03;2;2;
49914;PMS5003;35806;47.958;13.158;2023-07-13T03:51:31;2;2;
49914;PMS5003;35806;47.958;13.158;2023-07-13T03:53:59;3;3;
49914;PMS5003;35806;47.958;13.158;2023-07-13T03:56:27;2;2;
49914;PMS5003;35806;47.958;13.158;2023-07-13T03:58:55;4;3;
49914;PMS5003;35806;47.958;13.158;2023-07-13T04:01:23;3;3;
49914;PMS5003;35806;47.958;13.158;2023-07-13T04:03:51;4;3;
49914;PMS5003;35806;47.958;13.158;2023-07-13T04:06:19;5;3;
49914;PMS5003;35806;47.958;13.158;2023-07-13T04:08:49;3;3;
49914;PMS5003;35806;47.958;13.158;2023-07-13T04:11:21;4;3;
49914;PMS5003;35806;47.958;13.158;2023-07-13T04:13:55;3;3;
49914;PMS5003;35806;47.958;13.158;2023-07-13T04:16:22;3;3;
49914;PMS5003;35806;47.958;13.158;2023-07-13T04:18:51;2;2;
49914;PMS5003;35806;47.958;13.158;2023-07-13T04:21:18;2;2;
49914;PMS5003;35806;47.958;13.158;2023-07-13T04:23:46;3;3;
49914;PMS5003;35806;47.958;13.158;2023-07-13T04:26:13;4;4;
49914;PMS5003;35806;47.958;13.158;2023-07-13T04:28:41;3;3;
49914;PMS5003;35806;47.958;13.158;2023-07-13T04:31:08;4;3;
49914;PMS5003;35806;47.958;13.158;2023-07-13T04:33:36;2;2;
49914;PMS5003;35806;47.958;13.158;2023-07-13T04:36:03;3;3;
49914;PMS5003;35806;47.958;13.158;2023-07-13T04:38:32;4;4;
49914;PMS5003;35806;47.958;13.158;2023-07-13T04:41:00;3;3;
49914;PMS5003;35806;47.958;13.158;2023-07-13T04:43:30;2;2;
49914;PMS5003;35806;47.958;13.158;2023-07-13T04:46:02;2;2;
49914;PMS5003;35806;47.958;13.158;2023-07-13T04:48:30;2;2;
49914;PMS5003;35806;47.958;13.158;2023-07-13T04:50:58;2;2;
49914;PMS5003;35806;47.958;13.158;2023-07-13T04:53:25;2;2;
49914;PMS5003;35806;47.958;13.158;2023-07-13T04:55:53;4;3;
49914;PMS5003;35806;47.958;13.158;2023-07-13T04:58:20;3;2;
49914;PMS5003;35806;47.958;13.158;2023-07-13T05:00:48;3;3;
49914;PMS5003;35806;47.958;13.158;2023-07-13T05:03:15;3;3;
49914;PMS5003;35806;47.958;13.158;2023-07-13T05:05:43;3;3;
49914;PMS5003;35806;47.958;13.158;2023-07-13T05:08:20;5;3;
49914;PMS5003;35806;47.958;13.158;2023-07-13T05:10:47;4;3;
49914;PMS5003;35806;47.958;13.158;2023-07-13T05:13:15;3;3;
49914;PMS5003;35806;47.958;13.158;2023-07-13T05:15:42;3;3;
49914;PMS5003;35806;47.958;13.158;2023-07-13T05:18:09;6;3;
49914;PMS5003;35806;47.958;13.158;2023-07-13T05:20:36;2;2;
49914;PMS5003;35806;47.958;13.158;2023-07-13T05:23:04;2;2;
49914;PMS5003;35806;47.958;13.158;2023-07-13T05:25:32;2;2;
49914;PMS5003;35806;47.958;13.158;2023-07-13T05:27:59;3;3;
49914;PMS5003;35806;47.958;13.158;2023-07-13T05:30:26;5;5;
49914;PMS5003;35806;47.958;13.158;2023-07-13T05:32:53;3;3;
49914;PMS5003;35806;47.958;13.158;2023-07-13T05:35:20;4;4;
49914;PMS5003;35806;47.958;13.158;2023-07-13T05:37:48;4;4;
49914;PMS5003;35806;47.958;13.158;2023-07-13T05:40:15;3;3;
49914;PMS5003;35806;47.958;13.158;2023-07-13T05:42:43;4;4;
49914;PMS5003;35806;47.958;13.158;2023-07-13T05:45:10;4;3;
49914;PMS5003;35806;47.958;13.158;2023-07-13T05:47:38;4;4;
49914;PMS5003;35806;47.958;13.158;2023-07-13T05:50:06;5;4;
49914;PMS5003;35806;47.958;13.158;2023-07-13T05:52:34;4;3;
49914;PMS5003;35806;47.958;13.158;2023-07-13T05:55:01;4;3;
49914;PMS5003;35806;47.958;13.158;2023-07-13T05:57:29;6;6;
49914;PMS5003;35806;47.958;13.158;2023-07-13T05:59:57;5;4;
49914;PMS5003;35806;47.958;13.158;2023-07-13T06:02:25;5;4;
49914;PMS5003;35806;47.958;13.158;2023-07-13T06:04:56;5;5;
49914;PMS5003;35806;47.958;13.158;2023-07-13T06:07:23;4;4;
49914;PMS5003;35806;47.958;13.158;2023-07-13T06:09:51;5;5;
49914;PMS5003;35806;47.958;13.158;2023-07-13T06:12:19;8;5;
49914;PMS5003;35806;47.958;13.158;2023-07-13T06:14:46;4;4;
49914;PMS5003;35806;47.958;13.158;2023-07-13T06:17:14;6;6;
49914;PMS5003;35806;47.958;13.158;2023-07-13T06:19:42;5;5;
49914;PMS5003;35806;47.958;13.158;2023-07-13T06:22:09;8;5;
49914;PMS5003;35806;47.958;13.158;2023-07-13T06:24:37;6;6;
49914;PMS5003;35806;47.958;13.158;2023-07-13T06:27:04;7;6;
49914;PMS5003;35806;47.958;13.158;2023-07-13T06:29:32;7;6;
49914;PMS5003;35806;47.958;13.158;2023-07-13T06:31:59;8;5;
49914;PMS5003;35806;47.958;13.158;2023-07-13T06:34:27;7;5;
49914;PMS5003;35806;47.958;13.158;2023-07-13T06:36:53;7;7;
49914;PMS5003;35806;47.958;13.158;2023-07-13T06:39:21;9;5;
49914;PMS5003;35806;47.958;13.158;2023-07-13T06:41:48;6;6;
49914;PMS5003;35806;47.958;13.158;2023-07-13T06:44:16;6;6;
49914;PMS5003;35806;47.958;13.158;2023-07-13T06:46:43;4;4;
49914;PMS5003;35806;47.958;13.158;2023-07-13T06:49:11;4;4;
49914;PMS5003;35806;47.958;13.158;2023-07-13T06:51:38;6;5;
49914;PMS5003;35806;47.958;13.158;2023-07-13T06:54:06;5;5;
49914;PMS5003;35806;47.958;13.158;2023-07-13T06:56:33;4;4;
49914;PMS5003;35806;47.958;13.158;2023-07-13T06:59:01;7;6;
49914;PMS5003;35806;47.958;13.158;2023-07-13T07:01:28;7;6;
49914;PMS5003;35806;47.958;13.158;2023-07-13T07:03:56;8;8;
49914;PMS5003;35806;47.958;13.158;2023-07-13T07:06:24;5;5;
49914;PMS5003;35806;47.958;13.158;2023-07-13T07:08:52;7;5;
49914;PMS5003;35806;47.958;13.158;2023-07-13T07:11:21;5;5;
49914;PMS5003;35806;47.958;13.158;2023-07-13T07:13:49;7;7;
49914;PMS5003;35806;47.958;13.158;2023-07-13T07:16:17;10;9;
49914;PMS5003;35806;47.958;13.158;2023-07-13T07:19:00;5;5;
49914;PMS5003;35806;47.958;13.158;2023-07-13T07:21:28;5;5;
49914;PMS5003;35806;47.958;13.158;2023-07-13T07:24:23;7;6;
49914;PMS5003;35806;47.958;13.158;2023-07-13T07:27:16;7;7;
49914;PMS5003;35806;47.958;13.158;2023-07-13T07:30:03;5;5;
49914;PMS5003;35806;47.958;13.158;2023-07-13T07:32:32;5;5;
49914;PMS5003;35806;47.958;13.158;2023-07-13T07:35:00;6;6;
49914;PMS5003;35806;47.958;13.158;2023-07-13T07:37:27;5;5;
49914;PMS5003;35806;47.958;13.158;2023-07-13T07:39:55;5;5;
49914;PMS5003;35806;47.958;13.158;2023-07-13T07:42:22;7;5;
49914;PMS5003;35806;47.958;13.158;2023-07-13T07:44:50;4;4;
49914;PMS5003;35806;47.958;13.158;2023-07-13T07:47:23;6;5;
49914;PMS5003;35806;47.958;13.158;2023-07-13T07:49:55;4;4;
49914;PMS5003;35806;47.958;13.158;2023-07-13T07:52:23;4;4;
49914;PMS5003;35806;47.958;13.158;2023-07-13T07:54:50;6;5;
49914;PMS5003;35806;47.958;13.158;2023-07-13T07:57:18;4;4;
49914;PMS5003;35806;47.958;13.158;2023-07-13T07:59:45;5;4;
49914;PMS5003;35806;47.958;13.158;2023-07-13T08:02:18;5;5;
49914;PMS5003;35806;47.958;13.158;2023-07-13T08:04:45;5;5;
49914;PMS5003;35806;47.958;13.158;2023-07-13T08:07:13;4;4;
49914;PMS5003;35806;47.958;13.158;2023-07-13T08:09:40;4;4;
49914;PMS5003;35806;47.958;13.158;2023-07-13T08:12:08;5;4;
49914;PMS5003;35806;47.958;13.158;2023-07-13T08:14:35;4;4;
49914;PMS5003;35806;47.958;13.158;2023-07-13T08:17:03;4;4;
49914;PMS5003;35806;47.958;13.158;2023-07-13T08:19:30;5;5;
49914;PMS5003;35806;47.958;13.158;2023-07-13T08:21:58;5;5;
49914;PMS5003;35806;47.958;13.158;2023-07-13T08:24:26;5;5;
49914;PMS5003;35806;47.958;13.158;2023-07-13T08:26:54;4;4;
49914;PMS5003;35806;47.958;13.158;2023-07-13T08:29:21;5;5;
49914;PMS5003;35806;47.958;13.158;2023-07-13T08:31:49;5;5;
49914;PMS5003;35806;47.958;13.158;2023-07-13T08:34:16;8;7;
49914;PMS5003;35806;47.958;13.158;2023-07-13T08:36:44;6;6;
49914;PMS5003;35806;47.958;13.158;2023-07-13T08:39:16;9;6;
49914;PMS5003;35806;47.958;13.158;2023-07-13T08:41:44;8;7;
49914;PMS5003;35806;47.958;13.158;2023-07-13T08:44:16;7;7;
49914;PMS5003;35806;47.958;13.158;2023-07-13T08:46:53;9;7;
49914;PMS5003;35806;47.958;13.158;2023-07-13T08:49:24;8;7;
49914;PMS5003;35806;47.958;13.158;2023-07-13T08:51:53;6;6;
49914;PMS5003;35806;47.958;13.158;2023-07-13T08:54:26;7;7;
49914;PMS5003;35806;47.958;13.158;2023-07-13T08:56:58;7;7;
49914;PMS5003;35806;47.958;13.158;2023-07-13T08:59:30;5;5;
49914;PMS5003;35806;47.958;13.158;2023-07-13T09:02:06;7;5;
49914;PMS5003;35806;47.958;13.158;2023-07-13T09:04:48;8;8;
49914;PMS5003;35806;47.958;13.158;2023-07-13T09:07:19;6;6;
49914;PMS5003;35806;47.958;13.158;2023-07-13T09:10:04;7;7;
49914;PMS5003;35806;47.958;13.158;2023-07-13T09:12:42;5;5;
49914;PMS5003;35806;47.958;13.158;2023-07-13T09:15:21;7;7;
49914;PMS5003;35806;47.958;13.158;2023-07-13T09:17:56;6;5;
49914;PMS5003;35806;47.958;13.158;2023-07-13T09:20:31;7;7;
49914;PMS5003;35806;47.958;13.158;2023-07-13T09:23:04;6;6;
49914;PMS5003;35806;47.958;13.158;2023-07-13T09:25:37;7;7;
49914;PMS5003;35806;47.958;13.158;2023-07-13T09:28:10;9;7;
49914;PMS5003;35806;47.958;13.158;2023-07-13T09:30:44;6;5;
49914;PMS5003;35806;47.958;13.158;2023-07-13T09:33:17;8;8;
49914;PMS5003;35806;47.958;13.158;2023-07-13T09:35:45;4;4;
49914;PMS5003;35806;47.958;13.158;2023-07-13T09:38:13;7;7;
49914;PMS5003;35806;47.958;13.158;2023-07-13T09:40:44;8;8;
49914;PMS5003;35806;47.958;13.158;2023-07-13T09:43:20;9;8;
49914;PMS5003;35806;47.958;13.158;2023-07-13T09:45:47;6;6;
49914;PMS5003;35806;47.958;13.158;2023-07-13T09:48:16;10;8;
49914;PMS5003;35806;47.958;13.158;2023-07-13T09:50:44;8;8;
49914;PMS5003;35806;47.958;13.158;2023-07-13T09:53:12;10;8;
49914;PMS5003;35806;47.958;13.158;2023-07-13T09:55:41;9;9;
49914;PMS5003;35806;47.958;13.158;2023-07-13T09:58:19;11;11;
49914;PMS5003;35806;47.958;13.158;2023-07-13T10:00:54;10;8;
49914;PMS5003;35806;47.958;13.158;2023-07-13T10:03:23;8;7;
49914;PMS5003;35806;47.958;13.158;2023-07-13T10:05:52;10;10;
49914;PMS5003;35806;47.958;13.158;2023-07-13T10:08:40;9;9;
49914;PMS5003;35806;47.958;13.158;2023-07-13T10:11:09;12;10;
49914;PMS5003;35806;47.958;13.158;2023-07-13T10:13:41;11;9;
49914;PMS5003;35806;47.958;13.158;2023-07-13T10:16:15;8;8;
49914;PMS5003;35806;47.958;13.158;2023-07-13T10:18:45;9;9;
49914;PMS5003;35806;47.958;13.158;2023-07-13T10:21:16;8;8;
49914;PMS5003;35806;47.958;13.158;2023-07-13T10:23:47;11;11;
49914;PMS5003;35806;47.958;13.158;2023-07-13T10:26:21;9;9;
49914;PMS5003;35806;47.958;13.158;2023-07-13T10:28:54;9;9;
49914;PMS5003;35806;47.958;13.158;2023-07-13T10:31:25;14;14;
49914;PMS5003;35806;47.958;13.158;2023-07-13T10:33:52;12;11;
49914;PMS5003;35806;47.958;13.158;2023-07-13T10:36:27;9;9;
49914;PMS5003;35806;47.958;13.158;2023-07-13T10:39:00;8;8;
49914;PMS5003;35806;47.958;13.158;2023-07-13T10:41:40;6;6;
49914;PMS5003;35806;47.958;13.158;2023-07-13T10:44:11;7;7;
49914;PMS5003;35806;47.958;13.158;2023-07-13T10:46:46;6;6;
49914;PMS5003;35806;47.958;13.158;2023-07-13T10:49:13;7;7;
49914;PMS5003;35806;47.958;13.158;2023-07-13T10:51:42;8;8;
49914;PMS5003;35806;47.958;13.158;2023-07-13T10:54:15;8;8;
49914;PMS5003;35806;47.958;13.158;2023-07-13T10:56:45;7;7;
49914;PMS5003;35806;47.958;13.158;2023-07-13T10:59:14;9;9;
49914;PMS5003;35806;47.958;13.158;2023-07-13T11:01:53;7;7;
49914;PMS5003;35806;47.958;13.158;2023-07-13T11:04:23;9;9;
49914;PMS5003;35806;47.958;13.158;2023-07-13T11:06:53;10;10;
49914;PMS5003;35806;47.958;13.158;2023-07-13T11:09:33;10;10;
49914;PMS5003;35806;47.958;13.158;2023-07-13T11:12:08;11;9;
49914;PMS5003;35806;47.958;13.158;2023-07-13T11:15:01;9;9;
49914;PMS5003;35806;47.958;13.158;2023-07-13T11:17:34;9;9;
49914;PMS5003;35806;47.958;13.158;2023-07-13T11:20:22;11;11;
49914;PMS5003;35806;47.958;13.158;2023-07-13T11:23:07;11;11;
49914;PMS5003;35806;47.958;13.158;2023-07-13T11:25:43;9;9;
49914;PMS5003;35806;47.958;13.158;2023-07-13T11:28:21;11;10;
49914;PMS5003;35806;47.958;13.158;2023-07-13T11:30:59;9;9;
49914;PMS5003;35806;47.958;13.158;2023-07-13T11:33:31;10;9;
49914;PMS5003;35806;47.958;13.158;2023-07-13T11:36:17;12;12;
49914;PMS5003;35806;47.958;13.158;2023-07-13T11:38:49;10;9;
49914;PMS5003;35806;47.958;13.158;2023-07-13T11:41:26;6;6;
49914;PMS5003;35806;47.958;13.158;2023-07-13T11:44:01;7;6;
49914;PMS5003;35806;47.958;13.158;2023-07-13T11:46:37;11;8;
49914;PMS5003;35806;47.958;13.158;2023-07-13T11:49:05;8;7;
49914;PMS5003;35806;47.958;13.158;2023-07-13T11:51:33;7;7;
49914;PMS5003;35806;47.958;13.158;2023-07-13T11:54:03;8;8;
49914;PMS5003;35806;47.958;13.158;2023-07-13T11:56:32;10;10;
49914;PMS5003;35806;47.958;13.158;2023-07-13T11:59:04;7;7;
49914;PMS5003;35806;47.958;13.158;2023-07-13T12:01:35;6;6;
49914;PMS5003;35806;47.958;13.158;2023-07-13T12:04:11;8;8;
49914;PMS5003;35806;47.958;13.158;2023-07-13T12:06:58;9;9;
49914;PMS5003;35806;47.958;13.158;2023-07-13T12:09:33;12;11;
49914;PMS5003;35806;47.958;13.158;2023-07-13T12:12:01;8;8;
49914;PMS5003;35806;47.958;13.158;2023-07-13T12:14:29;7;7;
49914;PMS5003;35806;47.958;13.158;2023-07-13T12:17:00;7;7;
49914;PMS5003;35806;47.958;13.158;2023-07-13T12:19:28;9;9;
49914;PMS5003;35806;47.958;13.158;2023-07-13T12:21:56;8;8;
49914;PMS5003;35806;47.958;13.158;2023-07-13T12:24:25;7;7;
49914;PMS5003;35806;47.958;13.158;2023-07-13T12:26:53;12;11;
49914;PMS5003;35806;47.958;13.158;2023-07-13T12:29:22;10;8;
49914;PMS5003;35806;47.958;13.158;2023-07-13T12:31:50;10;10;
49914;PMS5003;35806;47.958;13.158;2023-07-13T12:34:17;10;10;
49914;PMS5003;35806;47.958;13.158;2023-07-13T12:36:46;9;8;
49914;PMS5003;35806;47.958;13.158;2023-07-13T12:39:16;10;10;
49914;PMS5003;35806;47.958;13.158;2023-07-13T12:41:45;12;10;
49914;PMS5003;35806;47.958;13.158;2023-07-13T12:44:14;9;9;
49914;PMS5003;35806;47.958;13.158;2023-07-13T12:46:52;9;9;
49914;PMS5003;35806;47.958;13.158;2023-07-13T12:49:25;10;8;
49914;PMS5003;35806;47.958;13.158;2023-07-13T12:51:57;9;9;
49914;PMS5003;35806;47.958;13.158;2023-07-13T12:54:26;10;8;
49914;PMS5003;35806;47.958;13.158;2023-07-13T12:56:55;10;10;
49914;PMS5003;35806;47.958;13.158;2023-07-13T12:59:27;9;9;
49914;PMS5003;35806;47.958;13.158;2023-07-13T13:01:58;9;9;
49914;PMS5003;35806;47.958;13.158;2023-07-13T13:04:25;10;10;
49914;PMS5003;35806;47.958;13.158;2023-07-13T13:07:00;11;11;
49914;PMS5003;35806;47.958;13.158;2023-07-13T13:09:29;11;9;
49914;PMS5003;35806;47.958;13.158;2023-07-13T13:11:56;9;9;
49914;PMS5003;35806;47.958;13.158;2023-07-13T13:14:23;14;12;
49914;PMS5003;35806;47.958;13.158;2023-07-13T13:16:50;11;11;
49914;PMS5003;35806;47.958;13.158;2023-07-13T13:19:21;9;9;
49914;PMS5003;35806;47.958;13.158;2023-07-13T13:21:53;10;9;
49914;PMS5003;35806;47.958;13.158;2023-07-13T13:24:21;8;8;
49914;PMS5003;35806;47.958;13.158;2023-07-13T13:26:55;7;7;
49914;PMS5003;35806;47.958;13.158;2023-07-13T13:29:23;9;9;
49914;PMS5003;35806;47.958;13.158;2023-07-13T13:32:10;8;8;
49914;PMS5003;35806;47.958;13.158;2023-07-13T13:34:44;7;7;
49914;PMS5003;35806;47.958;13.158;2023-07-13T13:37:18;8;8;
49914;PMS5003;35806;47.958;13.158;2023-07-13T13:39:48;8;8;
49914;PMS5003;35806;47.958;13.158;2023-07-13T13:42:17;11;7;
49914;PMS5003;35806;47.958;13.158;2023-07-13T13:44:49;8;8;
49914;PMS5003;35806;47.958;13.158;2023-07-13T13:47:21;10;8;
49914;PMS5003;35806;47.958;13.158;2023-07-13T13:50:04;8;8;
49914;PMS5003;35806;47.958;13.158;2023-07-13T13:52:39;13;10;
49914;PMS5003;35806;47.958;13.158;2023-07-13T13:55:11;12;10;
49914;PMS5003;35806;47.958;13.158;2023-07-13T13:57:40;9;9;
49914;PMS5003;35806;47.958;13.158;2023-07-13T14:00:08;15;13;
49914;PMS5003;35806;47.958;13.158;2023-07-13T14:02:44;8;7;
49914;PMS5003;35806;47.958;13.158;2023-07-13T14:05:13;10;8;
49914;PMS5003;35806;47.958;13.158;2023-07-13T14:07:54;9;9;
49914;PMS5003;35806;47.958;13.158;2023-07-13T14:10:21;9;9;
49914;PMS5003;35806;47.958;13.158;2023-07-13T14:12:51;8;7;
